createdAt,value
2019-01-06T00:01:32.912Z,13.90
2019-01-06T00:04:26.575Z,13.90
2019-01-06T00:07:11.914Z,14.10
2019-01-06T00:09:59.599Z,14.00
2019-01-06T00:12:40.352Z,14.10
2019-01-06T00:15:28.770Z,14.00
2019-01-06T00:18:11.783Z,14.60
2019-01-06T00:20:57.759Z,14.50
2019-01-06T00:23:56.134Z,14.50
2019-01-06T00:26:42.606Z,14.40
2019-01-06T00:29:33.042Z,14.40
2019-01-06T00:32:22.550Z,14.50
2019-01-06T00:35:19.727Z,14.50
2019-01-06T00:38:05.849Z,14.40
2019-01-06T00:40:44.935Z,14.30
2019-01-06T00:43:30.158Z,14.20
2019-01-06T00:46:16.959Z,14.00
2019-01-06T00:49:03.216Z,13.90
2019-01-06T00:51:53.975Z,13.90
2019-01-06T00:54:38.879Z,13.90
2019-01-06T00:57:39.407Z,14.00
2019-01-06T01:00:17.877Z,14.00
2019-01-06T01:03:05.723Z,14.00
2019-01-06T01:05:53.431Z,14.10
2019-01-06T01:08:46.997Z,14.20
2019-01-06T01:11:37.868Z,13.90
2019-01-06T01:14:27.557Z,14.10
2019-01-06T01:17:14.092Z,14.10
2019-01-06T01:20:05.254Z,14.20
2019-01-06T01:22:47.239Z,14.10
2019-01-06T01:25:34.926Z,14.10
2019-01-06T01:28:26.754Z,14.10
2019-01-06T01:31:13.346Z,14.20
2019-01-06T01:33:59.936Z,14.30
2019-01-06T01:36:47.638Z,14.30
2019-01-06T01:39:35.563Z,14.20
2019-01-06T01:42:16.580Z,13.90
2019-01-06T01:45:02.781Z,14.10
2019-01-06T01:47:49.438Z,14.00
2019-01-06T01:50:38.662Z,14.10
2019-01-06T01:53:24.781Z,13.90
2019-01-06T01:56:12.942Z,14.10
2019-01-06T01:59:01.498Z,13.80
2019-01-06T02:01:48.023Z,13.90
2019-01-06T02:04:34.375Z,13.90
2019-01-06T02:07:37.271Z,14.10
2019-01-06T02:10:25.307Z,14.00
2019-01-06T02:13:11.458Z,14.10
2019-01-06T02:15:57.854Z,14.10
2019-01-06T02:19:00.758Z,14.10
2019-01-06T02:21:50.483Z,14.20
2019-01-06T02:24:32.355Z,14.20
2019-01-06T02:27:16.031Z,14.30
2019-01-06T02:30:08.532Z,14.30
2019-01-06T02:32:55.219Z,14.20
2019-01-06T02:35:45.927Z,14.10
2019-01-06T02:38:42.390Z,14.20
2019-01-06T02:41:26.334Z,14.20
2019-01-06T02:44:23.332Z,14.20
2019-01-06T02:47:03.857Z,14.20
2019-01-06T02:49:49.966Z,14.10
2019-01-06T02:52:45.705Z,14.20
2019-01-06T02:55:32.046Z,14.30
2019-01-06T02:58:25.467Z,14.30
2019-01-06T03:01:20.793Z,14.00
2019-01-06T03:04:09.434Z,13.70
2019-01-06T03:06:53.157Z,14.00
2019-01-06T03:09:39.250Z,14.10
2019-01-06T03:12:32.991Z,14.20
2019-01-06T03:15:19.565Z,14.10
2019-01-06T03:18:05.337Z,14.00
2019-01-06T03:21:07.944Z,14.10
2019-01-06T03:23:54.543Z,14.10
2019-01-06T03:26:48.180Z,14.20
2019-01-06T03:29:40.482Z,14.20
2019-01-06T03:32:21.096Z,14.20
2019-01-06T03:35:07.421Z,14.10
2019-01-06T03:37:52.835Z,14.10
2019-01-06T03:40:50.102Z,14.00
2019-01-06T03:43:36.428Z,14.10
2019-01-06T03:46:22.776Z,14.20
2019-01-06T03:49:08.184Z,14.10
2019-01-06T03:52:02.058Z,14.00
2019-01-06T03:54:48.279Z,14.00
2019-01-06T03:57:34.586Z,14.10
2019-01-06T04:00:16.423Z,14.10
2019-01-06T04:03:02.614Z,14.10
2019-01-06T04:05:56.327Z,14.30
2019-01-06T04:08:45.635Z,14.60
2019-01-06T04:11:29.055Z,14.60
2019-01-06T04:14:20.465Z,14.60
2019-01-06T04:17:00.968Z,14.70
2019-01-06T04:19:47.686Z,14.70
2019-01-06T04:22:34.463Z,14.60
2019-01-06T04:25:20.656Z,14.70
2019-01-06T04:28:11.856Z,14.70
2019-01-06T04:30:58.251Z,14.70
2019-01-06T04:33:44.366Z,14.70
2019-01-06T04:36:35.138Z,14.70
2019-01-06T04:39:28.010Z,14.80
2019-01-06T04:42:16.198Z,14.80
2019-01-06T04:45:13.045Z,14.70
2019-01-06T04:47:59.167Z,14.80
2019-01-06T04:50:45.814Z,14.80
2019-01-06T04:53:32.202Z,14.80
2019-01-06T04:56:28.779Z,14.80
2019-01-06T04:59:14.887Z,14.80
2019-01-06T05:02:09.431Z,14.80
2019-01-06T05:05:04.821Z,14.80
2019-01-06T05:07:49.046Z,14.70
2019-01-06T05:10:45.735Z,14.70
2019-01-06T05:13:42.222Z,14.70
2019-01-06T05:16:31.111Z,14.70
2019-01-06T05:19:19.000Z,14.80
2019-01-06T05:22:06.995Z,14.80
2019-01-06T05:25:01.166Z,14.80
2019-01-06T05:27:47.341Z,14.70
2019-01-06T05:30:33.674Z,14.80
2019-01-06T05:33:22.299Z,14.80
2019-01-06T05:36:10.666Z,14.70
2019-01-06T05:39:08.397Z,14.80
2019-01-06T05:41:54.220Z,14.80
2019-01-06T05:45:00.523Z,14.90
2019-01-06T05:47:44.444Z,14.80
2019-01-06T05:50:26.454Z,14.80
2019-01-06T05:53:16.932Z,14.80
2019-01-06T05:56:10.661Z,14.90
2019-01-06T05:58:57.038Z,14.80
2019-01-06T06:01:43.290Z,14.80
2019-01-06T06:04:29.793Z,14.80
2019-01-06T06:07:20.715Z,14.80
2019-01-06T06:10:07.293Z,14.80
2019-01-06T06:12:53.750Z,14.80
2019-01-06T06:15:51.134Z,14.80
2019-01-06T06:18:47.890Z,14.80
2019-01-06T06:21:34.186Z,14.90
2019-01-06T06:24:37.069Z,14.80
2019-01-06T06:27:24.262Z,14.80
2019-01-06T06:30:21.122Z,14.80
2019-01-06T06:33:17.742Z,14.80
2019-01-06T06:36:04.641Z,14.80
2019-01-06T06:39:04.554Z,14.90
2019-01-06T06:41:45.622Z,14.80
2019-01-06T06:44:25.026Z,14.80
2019-01-06T06:47:11.755Z,14.80
2019-01-06T06:49:58.169Z,14.80
2019-01-06T06:52:51.921Z,14.80
2019-01-06T06:55:45.862Z,14.80
2019-01-06T06:58:33.533Z,14.80
2019-01-06T07:02:20.515Z,14.80
2019-01-06T07:05:04.697Z,14.80
2019-01-06T07:07:51.099Z,14.80
2019-01-06T07:11:05.915Z,14.90
2019-01-06T07:14:02.276Z,14.80
2019-01-06T07:17:22.436Z,14.90
2019-01-06T07:20:10.115Z,14.90
2019-01-06T07:23:09.624Z,14.80
2019-01-06T07:25:55.766Z,14.80
2019-01-06T07:28:43.919Z,14.80
2019-01-06T07:31:35.020Z,14.90
2019-01-06T07:34:39.431Z,14.90
2019-01-06T07:37:39.581Z,14.90
2019-01-06T07:40:33.277Z,14.80
2019-01-06T07:43:30.099Z,14.80
2019-01-06T07:46:16.222Z,14.90
2019-01-06T07:49:12.697Z,14.80
2019-01-06T07:51:51.283Z,14.90
2019-01-06T07:54:37.518Z,14.80
2019-01-06T07:57:43.501Z,14.80
2019-01-06T08:00:29.820Z,14.90
2019-01-06T08:03:20.592Z,14.90
2019-01-06T08:06:11.769Z,14.90
2019-01-06T08:08:57.956Z,14.90
2019-01-06T08:11:44.347Z,14.80
2019-01-06T08:14:30.697Z,14.90
2019-01-06T08:17:21.735Z,14.90
2019-01-06T08:20:08.138Z,14.90
2019-01-06T08:22:55.876Z,15.00
2019-01-06T08:25:43.570Z,15.00
2019-01-06T08:28:29.707Z,15.00
2019-01-06T08:31:17.639Z,14.90
2019-01-06T08:34:04.290Z,15.00
2019-01-06T08:36:51.042Z,15.00
2019-01-06T08:39:38.693Z,15.00
2019-01-06T08:42:39.823Z,15.00
2019-01-06T08:45:25.997Z,15.00
2019-01-06T08:48:12.245Z,15.10
2019-01-06T08:51:08.949Z,15.00
2019-01-06T08:54:01.233Z,15.00
2019-01-06T08:56:58.355Z,15.00
2019-01-06T08:59:44.639Z,15.10
2019-01-06T09:02:32.312Z,15.10
2019-01-06T09:05:28.984Z,15.20
2019-01-06T09:08:22.918Z,15.10
2019-01-06T09:11:12.943Z,15.20
2019-01-06T09:13:54.798Z,15.20
2019-01-06T09:16:47.331Z,15.20
2019-01-06T09:19:34.614Z,15.20
2019-01-06T09:22:28.255Z,15.30
2019-01-06T09:25:15.916Z,15.30
2019-01-06T09:28:03.651Z,15.30
2019-01-06T09:30:49.671Z,15.30
2019-01-06T09:33:36.198Z,15.40
2019-01-06T09:36:27.177Z,15.30
2019-01-06T09:39:13.825Z,15.40
2019-01-06T09:42:04.334Z,15.40
2019-01-06T09:44:58.094Z,15.40
2019-01-06T09:47:48.842Z,15.40
2019-01-06T09:50:35.003Z,15.50
2019-01-06T09:53:15.403Z,15.50
2019-01-06T09:56:01.623Z,15.50
2019-01-06T09:58:48.071Z,15.50
2019-01-06T10:01:42.754Z,15.50
2019-01-06T10:04:25.914Z,15.50
2019-01-06T10:07:24.286Z,15.50
2019-01-06T10:10:10.717Z,15.50
2019-01-06T10:12:58.908Z,15.50
2019-01-06T10:16:02.026Z,15.50
2019-01-06T10:18:51.575Z,15.60
2019-01-06T10:21:42.279Z,15.60
2019-01-06T10:24:32.780Z,15.70
2019-01-06T10:27:19.181Z,15.60
2019-01-06T10:30:05.650Z,15.70
2019-01-06T10:32:52.600Z,15.80
2019-01-06T10:35:44.210Z,15.80
2019-01-06T10:38:30.858Z,15.80
2019-01-06T10:41:28.810Z,15.90
2019-01-06T10:44:12.618Z,15.90
2019-01-06T10:46:53.964Z,15.90
2019-01-06T10:49:41.939Z,15.90
2019-01-06T10:52:35.772Z,16.00
2019-01-06T10:55:26.046Z,15.90
2019-01-06T10:58:19.709Z,15.90
2019-01-06T11:01:06.008Z,15.90
2019-01-06T11:04:08.961Z,15.90
2019-01-06T11:06:55.385Z,15.90
2019-01-06T11:09:38.565Z,15.90
2019-01-06T11:12:29.293Z,15.90
2019-01-06T11:15:15.169Z,15.90
2019-01-06T11:18:01.648Z,16.00
2019-01-06T11:20:53.123Z,15.90
2019-01-06T11:23:59.031Z,15.90
2019-01-06T11:26:45.101Z,16.00
2019-01-06T11:29:47.985Z,15.90
2019-01-06T11:32:34.214Z,16.00
2019-01-06T11:35:34.137Z,16.00
2019-01-06T11:38:22.794Z,16.00
2019-01-06T11:41:10.763Z,16.10
2019-01-06T11:43:56.907Z,16.00
2019-01-06T11:46:57.540Z,16.00
2019-01-06T11:49:43.894Z,15.90
2019-01-06T11:52:46.954Z,16.00
2019-01-06T11:55:43.453Z,16.00
2019-01-06T11:58:33.913Z,15.90
2019-01-06T12:01:24.073Z,15.90
2019-01-06T12:04:16.358Z,16.00
2019-01-06T12:07:15.522Z,15.90
2019-01-06T12:10:09.591Z,15.90
2019-01-06T12:12:55.914Z,15.90
2019-01-06T12:15:43.826Z,15.90
2019-01-06T12:18:31.955Z,15.80
2019-01-06T12:21:18.894Z,15.90
2019-01-06T12:24:05.295Z,15.80
2019-01-06T12:27:08.454Z,15.80
2019-01-06T12:29:54.759Z,15.80
2019-01-06T12:32:42.722Z,15.80
2019-01-06T12:35:31.018Z,15.90
2019-01-06T12:38:19.113Z,16.00
2019-01-06T12:41:05.402Z,16.10
2019-01-06T12:43:52.038Z,16.10
2019-01-06T12:46:38.163Z,16.10
2019-01-06T12:49:38.095Z,16.10
2019-01-06T12:52:24.486Z,16.20
2019-01-06T12:55:04.150Z,16.10
2019-01-06T12:57:50.440Z,15.90
2019-01-06T13:00:53.314Z,15.90
2019-01-06T13:03:39.769Z,15.90
2019-01-06T13:06:30.183Z,15.80
2019-01-06T13:09:23.999Z,16.10
2019-01-06T13:12:15.098Z,16.30
2019-01-06T13:15:01.218Z,16.40
2019-01-06T13:17:52.320Z,16.40
2019-01-06T13:20:52.190Z,16.40
2019-01-06T13:23:52.075Z,16.30
2019-01-06T13:26:48.614Z,16.50
2019-01-06T13:29:35.151Z,16.90
2019-01-06T13:32:36.052Z,17.40
2019-01-06T13:35:22.779Z,18.70
2019-01-06T13:38:28.663Z,19.90
2019-01-06T13:41:26.131Z,19.10
2019-01-06T13:44:12.015Z,18.30
2019-01-06T13:47:05.963Z,17.60
2019-01-06T13:49:52.385Z,17.40
2019-01-06T13:52:38.674Z,17.10
2019-01-06T13:55:25.106Z,16.90
2019-01-06T13:58:18.646Z,16.90
2019-01-06T14:01:05.012Z,17.00
2019-01-06T14:03:52.675Z,16.90
2019-01-06T14:06:39.049Z,16.80
2019-01-06T14:09:29.467Z,16.80
2019-01-06T14:12:10.782Z,16.70
2019-01-06T14:14:51.910Z,16.80
2019-01-06T14:17:38.374Z,16.90
2019-01-06T14:20:32.311Z,16.90
2019-01-06T14:23:17.615Z,17.10
2019-01-06T14:26:10.457Z,17.10
2019-01-06T14:29:01.377Z,17.10
2019-01-06T14:31:55.054Z,16.90
2019-01-06T14:34:46.453Z,16.80
2019-01-06T14:37:33.102Z,16.60
2019-01-06T14:40:21.087Z,16.50
2019-01-06T14:43:07.480Z,16.50
2019-01-06T14:46:02.941Z,16.50
2019-01-06T14:48:49.274Z,16.60
2019-01-06T14:51:37.222Z,16.60
2019-01-06T14:54:23.730Z,16.60
2019-01-06T14:57:11.441Z,16.40
2019-01-06T15:00:02.171Z,16.30
2019-01-06T15:02:47.350Z,16.20
2019-01-06T15:05:33.855Z,16.20
2019-01-06T15:08:21.802Z,16.20
2019-01-06T15:11:08.170Z,16.20
2019-01-06T15:14:01.215Z,16.10
2019-01-06T15:16:50.141Z,16.00
2019-01-06T15:19:43.982Z,16.00
2019-01-06T15:22:34.642Z,16.00
2019-01-06T15:25:14.976Z,16.00
2019-01-06T15:28:21.112Z,15.90
2019-01-06T15:31:07.298Z,15.90
2019-01-06T15:34:12.694Z,15.80
2019-01-06T15:37:07.110Z,15.80
2019-01-06T15:40:04.414Z,15.80
2019-01-06T15:42:51.499Z,15.70
2019-01-06T15:45:37.617Z,15.80
2019-01-06T15:48:23.974Z,15.70
2019-01-06T15:51:07.119Z,15.80
2019-01-06T15:53:55.025Z,15.70
2019-01-06T15:56:41.453Z,15.70
2019-01-06T15:59:36.721Z,15.70
2019-01-06T16:02:27.686Z,15.70
2019-01-06T16:05:33.082Z,15.70
2019-01-06T16:08:29.583Z,15.70
2019-01-06T16:11:20.599Z,15.60
2019-01-06T16:14:05.627Z,15.60
2019-01-06T16:16:51.980Z,15.60
2019-01-06T16:19:38.166Z,15.60
2019-01-06T16:22:37.209Z,15.60
2019-01-06T16:25:31.003Z,15.60
2019-01-06T16:28:19.130Z,15.50
2019-01-06T16:31:09.613Z,15.50
2019-01-06T16:33:53.783Z,15.50
2019-01-06T16:36:44.747Z,15.50
2019-01-06T16:39:41.341Z,15.50
2019-01-06T16:42:44.323Z,15.50
2019-01-06T16:45:30.449Z,15.50
2019-01-06T16:48:16.864Z,15.50
2019-01-06T16:51:10.717Z,15.50
2019-01-06T16:54:07.293Z,15.50
2019-01-06T16:56:53.173Z,15.50
2019-01-06T16:59:39.849Z,15.50
2019-01-06T17:02:25.154Z,15.40
2019-01-06T17:05:30.846Z,15.50
2019-01-06T17:08:16.961Z,15.50
2019-01-06T17:11:11.096Z,15.50
2019-01-06T17:13:58.882Z,15.40
2019-01-06T17:16:45.055Z,15.30
2019-01-06T17:19:27.991Z,15.50
2019-01-06T17:22:14.120Z,15.50
2019-01-06T17:25:00.545Z,15.50
2019-01-06T17:27:54.391Z,15.40
2019-01-06T17:30:44.874Z,15.40
2019-01-06T17:33:24.743Z,15.40
2019-01-06T17:36:13.793Z,15.40
2019-01-06T17:39:13.862Z,15.30
2019-01-06T17:42:03.618Z,15.30
2019-01-06T17:45:09.185Z,15.30
2019-01-06T17:47:55.383Z,15.40
2019-01-06T17:50:48.742Z,15.30
2019-01-06T17:53:39.387Z,15.30
2019-01-06T17:56:42.193Z,15.30
2019-01-06T17:59:35.817Z,15.30
2019-01-06T18:02:29.354Z,15.30
2019-01-06T18:05:23.230Z,15.20
2019-01-06T18:08:09.666Z,15.20
2019-01-06T18:10:56.063Z,15.30
2019-01-06T18:13:46.998Z,15.20
2019-01-06T18:16:47.522Z,15.10
2019-01-06T18:19:30.882Z,15.20
2019-01-06T18:22:19.594Z,15.20
2019-01-06T18:25:09.422Z,15.20
2019-01-06T18:27:56.010Z,15.10
2019-01-06T18:30:45.595Z,15.10
2019-01-06T18:33:45.483Z,15.10
2019-01-06T18:36:31.075Z,15.10
2019-01-06T18:39:18.770Z,15.20
2019-01-06T18:42:04.912Z,15.20
2019-01-06T18:44:55.950Z,15.20
2019-01-06T18:47:42.394Z,15.10
2019-01-06T18:50:28.698Z,15.20
2019-01-06T18:53:31.618Z,15.20
2019-01-06T18:56:13.637Z,15.10
2019-01-06T18:59:11.930Z,15.10
2019-01-06T19:01:59.337Z,15.20
2019-01-06T19:04:45.339Z,15.10
2019-01-06T19:07:38.188Z,15.10
2019-01-06T19:10:44.168Z,15.10
2019-01-06T19:13:30.389Z,15.10
2019-01-06T19:16:19.587Z,15.00
2019-01-06T19:19:05.677Z,15.10
2019-01-06T19:21:51.995Z,15.10
2019-01-06T19:24:38.642Z,15.10
2019-01-06T19:27:24.762Z,15.10
2019-01-06T19:30:25.397Z,15.10
2019-01-06T19:33:11.806Z,15.10
2019-01-06T19:35:55.538Z,15.10
2019-01-06T19:38:48.934Z,15.00
2019-01-06T19:41:45.937Z,15.10
2019-01-06T19:44:36.661Z,15.10
2019-01-06T19:47:23.181Z,15.10
2019-01-06T19:50:02.007Z,15.10
2019-01-06T19:52:40.399Z,15.10
2019-01-06T19:55:33.502Z,15.00
2019-01-06T19:58:32.670Z,15.10
2019-01-06T20:01:18.967Z,15.00
2019-01-06T20:04:09.896Z,15.00
2019-01-06T20:07:12.690Z,15.10
2019-01-06T20:10:03.206Z,15.10
2019-01-06T20:12:49.358Z,15.10
2019-01-06T20:15:35.810Z,15.10
2019-01-06T20:18:21.630Z,15.10
2019-01-06T20:21:14.267Z,15.00
2019-01-06T20:24:04.805Z,15.00
2019-01-06T20:26:51.194Z,15.00
2019-01-06T20:29:38.881Z,15.00
2019-01-06T20:32:18.147Z,15.10
2019-01-06T20:35:12.236Z,15.10
2019-01-06T20:38:07.749Z,15.10
2019-01-06T20:41:13.915Z,15.10
2019-01-06T20:43:58.416Z,15.00
2019-01-06T20:46:44.851Z,15.10
2019-01-06T20:49:44.462Z,15.10
2019-01-06T20:52:41.979Z,15.00
2019-01-06T20:55:26.070Z,15.10
2019-01-06T20:58:13.819Z,15.10
2019-01-06T21:00:59.923Z,15.00
2019-01-06T21:03:46.287Z,15.10
2019-01-06T21:06:37.286Z,15.00
2019-01-06T21:09:41.967Z,15.10
2019-01-06T21:12:30.776Z,15.00
2019-01-06T21:15:33.425Z,15.00
2019-01-06T21:18:19.738Z,15.00
2019-01-06T21:21:06.085Z,15.00
2019-01-06T21:24:06.253Z,15.00
2019-01-06T21:27:03.256Z,15.00
2019-01-06T21:29:45.703Z,15.10
2019-01-06T21:32:36.453Z,15.10
2019-01-06T21:35:23.843Z,15.00
2019-01-06T21:38:24.006Z,15.00
2019-01-06T21:41:10.466Z,15.10
2019-01-06T21:44:16.827Z,15.00
2019-01-06T21:47:09.928Z,15.10
2019-01-06T21:50:02.479Z,15.10
2019-01-06T21:52:56.205Z,15.00
2019-01-06T21:55:42.418Z,15.00
2019-01-06T21:58:37.545Z,15.10
2019-01-06T22:01:33.250Z,15.00
2019-01-06T22:04:20.009Z,15.00
2019-01-06T22:07:02.238Z,14.90
2019-01-06T22:09:49.010Z,15.00
2019-01-06T22:12:55.111Z,15.00
2019-01-06T22:15:36.882Z,14.90
2019-01-06T22:18:27.422Z,14.90
2019-01-06T22:21:09.929Z,14.90
2019-01-06T22:23:56.268Z,14.90
2019-01-06T22:26:59.134Z,14.90
2019-01-06T22:29:45.749Z,14.90
2019-01-06T22:32:32.119Z,14.80
2019-01-06T22:35:18.942Z,14.90
2019-01-06T22:38:09.414Z,14.90
2019-01-06T22:40:51.994Z,14.80
2019-01-06T22:43:39.173Z,14.90
2019-01-06T22:46:26.854Z,14.80
2019-01-06T22:49:09.863Z,14.80
2019-01-06T22:52:00.714Z,14.80
2019-01-06T22:55:00.961Z,14.90
2019-01-06T22:57:47.086Z,14.80
2019-01-06T23:00:34.530Z,14.80
2019-01-06T23:03:34.453Z,14.80
2019-01-06T23:06:31.919Z,14.80
2019-01-06T23:09:18.319Z,14.80
2019-01-06T23:12:05.623Z,14.90
2019-01-06T23:14:52.363Z,14.80
2019-01-06T23:17:39.294Z,14.80
2019-01-06T23:20:35.569Z,14.80
2019-01-06T23:23:20.707Z,14.80
2019-01-06T23:26:14.294Z,14.80
2019-01-06T23:28:54.222Z,14.80
2019-01-06T23:31:47.701Z,14.90
2019-01-06T23:34:30.767Z,14.80
2019-01-06T23:37:17.327Z,14.80
2019-01-06T23:40:04.972Z,14.80
2019-01-06T23:42:56.109Z,14.80
2019-01-06T23:45:44.887Z,14.80
2019-01-06T23:48:31.378Z,14.80
2019-01-06T23:51:27.698Z,14.80
2019-01-06T23:54:27.816Z,14.70
2019-01-06T23:57:21.845Z,14.70
